createdAt,value
2019-04-30T00:01:54.974Z,3.40
2019-04-30T00:04:29.589Z,3.85
2019-04-30T00:06:56.287Z,3.85
2019-04-30T00:09:25.628Z,4.07
2019-04-30T00:11:57.988Z,3.95
2019-04-30T00:14:25.040Z,3.72
2019-04-30T00:16:55.393Z,3.77
2019-04-30T00:19:25.957Z,3.80
2019-04-30T00:22:00.135Z,3.55
2019-04-30T00:24:25.999Z,3.90
2019-04-30T00:27:01.018Z,3.83
2019-04-30T00:29:31.018Z,3.90
2019-04-30T00:32:04.409Z,3.75
2019-04-30T00:34:30.933Z,3.70
2019-04-30T00:37:01.118Z,4.30
2019-04-30T00:39:29.933Z,3.90
2019-04-30T00:41:58.677Z,4.15
2019-04-30T00:44:28.494Z,3.98
2019-04-30T00:47:00.647Z,3.77
2019-04-30T00:49:27.908Z,3.83
2019-04-30T00:51:58.198Z,4.03
2019-04-30T00:54:30.673Z,3.85
2019-04-30T00:57:03.705Z,3.52
2019-04-30T00:59:29.033Z,4.20
2019-04-30T01:02:11.044Z,3.60
2019-04-30T01:04:44.998Z,3.77
2019-04-30T01:07:15.542Z,4.10
2019-04-30T01:09:49.872Z,4.30
2019-04-30T01:12:27.664Z,3.90
2019-04-30T01:14:49.797Z,3.92
2019-04-30T01:17:18.976Z,3.72
2019-04-30T01:19:51.059Z,4.10
2019-04-30T01:22:21.250Z,3.72
2019-04-30T01:24:49.778Z,3.37
2019-04-30T01:27:19.102Z,3.52
2019-04-30T01:29:48.709Z,3.75
2019-04-30T01:32:20.986Z,3.80
2019-04-30T01:34:52.213Z,3.58
2019-04-30T01:37:20.483Z,3.72
2019-04-30T01:39:49.296Z,3.80
2019-04-30T01:42:19.094Z,4.13
2019-04-30T01:44:52.488Z,3.80
2019-04-30T01:47:21.427Z,3.92
2019-04-30T01:49:49.599Z,3.80
2019-04-30T01:52:19.406Z,4.10
2019-04-30T01:54:49.050Z,3.95
2019-04-30T01:57:55.403Z,3.92
2019-04-30T02:00:32.761Z,4.12
2019-04-30T02:03:01.928Z,3.60
2019-04-30T02:05:30.696Z,3.83
2019-04-30T02:07:59.488Z,3.77
2019-04-30T02:10:28.618Z,3.67
2019-04-30T02:12:59.036Z,4.03
2019-04-30T02:15:29.212Z,3.85
2019-04-30T02:17:58.764Z,4.15
2019-04-30T02:20:28.730Z,4.08
2019-04-30T02:22:58.686Z,3.67
2019-04-30T02:25:29.574Z,3.95
2019-04-30T02:27:59.272Z,4.05
2019-04-30T02:30:30.894Z,4.12
2019-04-30T02:33:00.552Z,3.92
2019-04-30T02:35:54.620Z,4.20
2019-04-30T02:38:30.240Z,3.80
2019-04-30T02:40:59.849Z,4.00
2019-04-30T02:43:31.679Z,3.83
2019-04-30T02:46:01.578Z,4.05
2019-04-30T02:48:33.203Z,3.77
2019-04-30T02:51:03.936Z,4.00
2019-04-30T02:54:05.935Z,3.98
2019-04-30T02:56:34.664Z,4.13
2019-04-30T02:59:04.065Z,4.15
2019-04-30T03:01:32.967Z,4.22
2019-04-30T03:04:01.769Z,3.87
2019-04-30T03:06:30.703Z,3.98
2019-04-30T03:09:01.027Z,4.28
2019-04-30T03:11:30.438Z,4.15
2019-04-30T03:13:59.592Z,4.25
2019-04-30T03:16:36.893Z,4.12
2019-04-30T03:19:24.534Z,4.03
2019-04-30T03:22:00.213Z,4.20
2019-04-30T03:24:29.559Z,4.35
2019-04-30T03:26:59.433Z,4.05
2019-04-30T03:29:30.254Z,4.60
2019-04-30T03:32:02.692Z,4.40
2019-04-30T03:34:32.633Z,4.20
2019-04-30T03:37:02.129Z,3.85
2019-04-30T03:39:33.656Z,3.92
2019-04-30T03:42:00.911Z,4.17
2019-04-30T03:44:32.429Z,4.05
2019-04-30T03:47:00.249Z,3.92
2019-04-30T03:49:29.931Z,4.63
2019-04-30T03:51:59.793Z,4.13
2019-04-30T03:54:29.431Z,4.22
2019-04-30T03:57:00.850Z,4.08
2019-04-30T03:59:30.414Z,4.12
2019-04-30T04:02:06.088Z,4.00
2019-04-30T04:05:03.977Z,3.87
2019-04-30T04:07:41.538Z,4.22
2019-04-30T04:10:50.146Z,4.30
2019-04-30T04:13:19.736Z,3.98
2019-04-30T04:15:49.884Z,4.30
2019-04-30T04:18:20.253Z,3.70
2019-04-30T04:20:52.069Z,4.20
2019-04-30T04:23:19.695Z,4.53
2019-04-30T04:25:49.905Z,4.28
2019-04-30T04:28:20.273Z,4.30
2019-04-30T04:30:50.568Z,4.00
2019-04-30T04:33:20.065Z,3.98
2019-04-30T04:35:49.850Z,4.30
2019-04-30T04:38:20.481Z,3.70
2019-04-30T04:40:50.167Z,4.30
2019-04-30T04:43:20.158Z,4.03
2019-04-30T04:45:49.878Z,3.98
2019-04-30T04:48:19.918Z,4.50
2019-04-30T04:50:50.055Z,4.08
2019-04-30T04:53:19.568Z,4.20
2019-04-30T04:55:49.858Z,4.30
2019-04-30T04:58:21.710Z,4.15
2019-04-30T05:01:11.706Z,4.05
2019-04-30T05:03:40.070Z,4.17
2019-04-30T05:06:11.395Z,4.35
2019-04-30T05:08:39.707Z,4.10
2019-04-30T05:11:09.581Z,4.25
2019-04-30T05:13:38.910Z,4.37
2019-04-30T05:16:09.223Z,4.37
2019-04-30T05:18:39.116Z,4.20
2019-04-30T05:21:08.804Z,3.95
2019-04-30T05:23:39.583Z,4.27
2019-04-30T05:26:08.430Z,4.60
2019-04-30T05:28:39.369Z,4.03
2019-04-30T05:31:09.652Z,3.90
2019-04-30T05:33:39.082Z,4.20
2019-04-30T05:36:09.295Z,4.20
2019-04-30T05:38:39.152Z,4.10
2019-04-30T05:41:09.311Z,3.90
2019-04-30T05:43:38.728Z,4.12
2019-04-30T05:46:08.365Z,4.15
2019-04-30T05:48:39.604Z,3.90
2019-04-30T05:51:09.001Z,3.83
2019-04-30T05:53:39.336Z,4.00
2019-04-30T05:56:09.447Z,4.20
2019-04-30T05:58:39.762Z,3.85
2019-04-30T06:01:09.715Z,3.80
2019-04-30T06:03:38.773Z,3.92
2019-04-30T06:06:09.164Z,3.85
2019-04-30T06:08:49.096Z,3.63
2019-04-30T06:11:32.567Z,3.50
2019-04-30T06:14:19.174Z,3.35
2019-04-30T06:17:04.757Z,3.25
2019-04-30T06:19:33.635Z,3.45
2019-04-30T06:22:07.827Z,3.30
2019-04-30T06:24:32.999Z,3.15
2019-04-30T06:27:10.574Z,3.50
2019-04-30T06:29:39.144Z,3.30
2019-04-30T06:32:09.428Z,3.25
2019-04-30T06:34:41.614Z,3.17
2019-04-30T06:37:09.791Z,2.60
2019-04-30T06:39:38.921Z,2.70
2019-04-30T06:42:12.501Z,2.20
2019-04-30T06:44:41.366Z,2.77
2019-04-30T06:47:09.253Z,2.50
2019-04-30T06:49:39.261Z,2.37
2019-04-30T06:52:19.539Z,2.30
2019-04-30T06:54:39.708Z,2.17
2019-04-30T06:57:09.756Z,2.20
2019-04-30T06:59:39.765Z,1.90
2019-04-30T07:02:30.652Z,1.80
2019-04-30T07:04:58.808Z,1.82
2019-04-30T07:07:38.523Z,1.80
2019-04-30T07:10:10.128Z,1.50
2019-04-30T07:12:59.006Z,1.63
2019-04-30T07:15:29.627Z,1.52
2019-04-30T07:17:59.178Z,1.70
2019-04-30T07:20:29.147Z,1.52
2019-04-30T07:23:02.387Z,1.65
2019-04-30T07:25:29.309Z,1.80
2019-04-30T07:27:59.823Z,1.65
2019-04-30T07:30:30.779Z,1.40
2019-04-30T07:32:59.717Z,1.50
2019-04-30T07:35:29.245Z,1.50
2019-04-30T07:38:00.635Z,1.40
2019-04-30T07:40:29.249Z,1.10
2019-04-30T07:42:59.125Z,1.40
2019-04-30T07:45:31.691Z,1.20
2019-04-30T07:47:59.385Z,1.20
2019-04-30T07:50:51.410Z,1.20
2019-04-30T07:53:18.754Z,1.27
2019-04-30T07:55:49.382Z,1.07
2019-04-30T07:58:20.472Z,1.10
2019-04-30T08:00:50.363Z,1.02
2019-04-30T08:03:44.385Z,1.25
2019-04-30T08:06:14.495Z,1.00
2019-04-30T08:08:43.580Z,1.10
2019-04-30T08:11:23.055Z,0.80
2019-04-30T08:13:43.382Z,1.00
2019-04-30T08:16:12.818Z,1.27
2019-04-30T08:18:41.772Z,1.07
2019-04-30T08:21:10.445Z,1.07
2019-04-30T08:23:39.792Z,1.02
2019-04-30T08:26:08.943Z,0.82
2019-04-30T08:28:38.693Z,1.07
2019-04-30T08:31:09.009Z,0.95
2019-04-30T08:33:40.086Z,0.83
2019-04-30T08:36:09.463Z,1.00
2019-04-30T08:38:39.444Z,1.00
2019-04-30T08:41:09.376Z,0.88
2019-04-30T08:43:39.392Z,0.80
2019-04-30T08:46:09.392Z,1.00
2019-04-30T08:48:49.861Z,0.77
2019-04-30T08:51:09.970Z,0.90
2019-04-30T08:53:41.086Z,0.90
2019-04-30T08:56:10.190Z,0.78
2019-04-30T08:58:39.206Z,0.72
2019-04-30T09:01:08.747Z,0.90
2019-04-30T09:03:39.253Z,0.90
2019-04-30T09:06:15.821Z,0.90
2019-04-30T09:08:45.672Z,0.70
2019-04-30T09:11:24.671Z,0.90
2019-04-30T09:13:45.083Z,0.80
2019-04-30T09:16:13.970Z,1.03
2019-04-30T09:18:42.671Z,0.82
2019-04-30T09:21:11.443Z,0.70
2019-04-30T09:23:47.737Z,0.80
2019-04-30T09:26:10.806Z,0.70
2019-04-30T09:28:41.066Z,0.70
2019-04-30T09:31:10.263Z,0.80
2019-04-30T09:33:39.419Z,0.90
2019-04-30T09:36:09.140Z,0.90
2019-04-30T09:38:38.909Z,0.63
2019-04-30T09:41:09.366Z,0.80
2019-04-30T09:43:40.403Z,0.72
2019-04-30T09:46:18.999Z,0.80
2019-04-30T09:48:39.389Z,0.80
2019-04-30T09:51:10.801Z,0.80
2019-04-30T09:53:39.697Z,0.98
2019-04-30T09:56:09.584Z,0.90
2019-04-30T09:58:39.361Z,0.70
2019-04-30T10:01:09.445Z,0.65
2019-04-30T10:03:39.667Z,0.98
2019-04-30T10:06:09.165Z,0.90
2019-04-30T10:08:47.802Z,0.82
2019-04-30T10:11:17.551Z,0.70
2019-04-30T10:13:46.375Z,0.77
2019-04-30T10:16:22.124Z,0.88
2019-04-30T10:18:50.869Z,0.90
2019-04-30T10:21:19.635Z,0.70
2019-04-30T10:23:49.915Z,0.90
2019-04-30T10:26:19.234Z,0.78
2019-04-30T10:28:50.504Z,0.90
2019-04-30T10:31:20.940Z,0.90
2019-04-30T10:33:49.983Z,0.80
2019-04-30T10:36:19.387Z,0.90
2019-04-30T10:38:49.417Z,0.75
2019-04-30T10:41:18.912Z,0.77
2019-04-30T10:43:49.236Z,0.80
2019-04-30T10:46:18.370Z,0.80
2019-04-30T10:48:47.123Z,0.90
2019-04-30T10:51:15.878Z,1.00
2019-04-30T10:53:44.643Z,0.72
2019-04-30T10:56:14.267Z,0.80
2019-04-30T10:58:43.599Z,0.90
2019-04-30T11:01:12.440Z,0.88
2019-04-30T11:03:42.917Z,0.90
2019-04-30T11:06:11.906Z,0.72
2019-04-30T11:08:40.649Z,0.80
2019-04-30T11:11:09.539Z,0.80
2019-04-30T11:13:38.241Z,0.93
2019-04-30T11:16:14.651Z,0.80
2019-04-30T11:18:38.534Z,0.80
2019-04-30T11:21:09.485Z,0.80
2019-04-30T11:23:39.550Z,0.95
2019-04-30T11:26:09.190Z,0.90
2019-04-30T11:28:38.476Z,1.05
2019-04-30T11:31:25.388Z,0.70
2019-04-30T11:33:56.012Z,0.90
2019-04-30T11:36:24.934Z,0.90
2019-04-30T11:38:53.848Z,0.83
2019-04-30T11:41:32.437Z,0.90
2019-04-30T11:43:53.012Z,1.00
2019-04-30T11:46:55.088Z,0.72
2019-04-30T11:49:23.788Z,0.80
2019-04-30T11:51:52.479Z,1.00
2019-04-30T11:54:21.366Z,0.80
2019-04-30T11:56:50.520Z,0.80
2019-04-30T11:59:19.638Z,1.00
2019-04-30T12:01:50.589Z,0.90
2019-04-30T12:04:19.526Z,0.90
2019-04-30T12:06:48.252Z,0.90
2019-04-30T12:09:32.408Z,0.68
2019-04-30T12:12:01.116Z,0.80
2019-04-30T12:14:29.935Z,0.70
2019-04-30T12:16:59.147Z,0.70
2019-04-30T12:19:28.673Z,0.80
2019-04-30T12:21:57.579Z,0.80
2019-04-30T12:24:26.390Z,0.93
2019-04-30T12:26:55.394Z,0.60
2019-04-30T12:29:24.180Z,0.88
2019-04-30T12:31:53.012Z,0.85
2019-04-30T12:34:21.760Z,0.60
2019-04-30T12:36:50.442Z,0.80
2019-04-30T12:39:19.527Z,0.60
2019-04-30T12:41:48.875Z,0.80
2019-04-30T12:44:17.831Z,0.95
2019-04-30T12:46:48.947Z,0.80
2019-04-30T12:49:19.003Z,0.62
2019-04-30T12:51:55.949Z,0.75
2019-04-30T12:54:42.656Z,0.78
2019-04-30T12:57:21.856Z,0.80
2019-04-30T12:59:50.600Z,0.80
2019-04-30T13:02:19.465Z,0.80
2019-04-30T13:04:49.303Z,0.80
2019-04-30T13:07:20.603Z,0.90
2019-04-30T13:09:49.779Z,0.80
2019-04-30T13:12:19.474Z,0.88
2019-04-30T13:14:52.416Z,0.70
2019-04-30T13:17:18.953Z,0.70
2019-04-30T13:19:47.899Z,0.80
2019-04-30T13:22:18.887Z,0.88
2019-04-30T13:24:49.568Z,0.70
2019-04-30T13:27:19.573Z,0.75
2019-04-30T13:29:55.490Z,0.70
2019-04-30T13:32:30.039Z,0.70
2019-04-30T13:35:00.960Z,0.60
2019-04-30T13:37:41.624Z,0.70
2019-04-30T13:40:20.244Z,0.80
2019-04-30T13:42:50.131Z,0.50
2019-04-30T13:45:20.689Z,0.70
2019-04-30T13:47:49.559Z,0.75
2019-04-30T13:50:19.744Z,0.72
2019-04-30T13:52:49.106Z,0.50
2019-04-30T13:55:19.234Z,0.72
2019-04-30T13:57:48.268Z,0.65
2019-04-30T14:00:22.399Z,0.90
2019-04-30T14:03:00.561Z,0.60
2019-04-30T14:05:28.126Z,0.70
2019-04-30T14:08:12.645Z,0.60
2019-04-30T14:10:43.227Z,0.70
2019-04-30T14:13:12.167Z,0.62
2019-04-30T14:15:41.137Z,0.70
2019-04-30T14:18:09.832Z,0.63
2019-04-30T14:20:38.581Z,0.53
2019-04-30T14:23:08.544Z,0.50
2019-04-30T14:25:38.479Z,0.70
2019-04-30T14:28:08.959Z,0.57
2019-04-30T14:30:39.277Z,0.80
2019-04-30T14:33:09.415Z,0.60
2019-04-30T14:35:38.708Z,0.50
2019-04-30T14:38:09.045Z,0.50
2019-04-30T14:40:39.957Z,0.70
2019-04-30T14:43:30.870Z,0.50
2019-04-30T14:46:31.591Z,0.63
2019-04-30T14:49:14.844Z,0.70
2019-04-30T14:51:41.886Z,0.70
2019-04-30T14:54:15.667Z,0.70
2019-04-30T14:56:59.365Z,0.70
2019-04-30T14:59:46.270Z,0.60
2019-04-30T15:02:25.636Z,0.70
2019-04-30T15:04:54.375Z,0.60
2019-04-30T15:07:23.613Z,0.68
2019-04-30T15:09:53.454Z,0.70
2019-04-30T15:12:22.321Z,0.80
2019-04-30T15:14:51.188Z,0.70
2019-04-30T15:17:20.128Z,0.70
2019-04-30T15:19:54.258Z,0.70
2019-04-30T15:22:20.394Z,0.68
2019-04-30T15:24:49.287Z,0.60
2019-04-30T15:27:20.456Z,0.70
2019-04-30T15:29:57.004Z,0.70
2019-04-30T15:32:19.834Z,0.80
2019-04-30T15:34:49.130Z,0.72
2019-04-30T15:37:21.734Z,0.80
2019-04-30T15:39:49.005Z,0.60
2019-04-30T15:42:19.161Z,0.57
2019-04-30T15:44:49.658Z,0.85
2019-04-30T15:47:19.695Z,0.60
2019-04-30T15:49:49.322Z,0.60
2019-04-30T15:52:20.970Z,0.70
2019-04-30T15:54:49.794Z,0.70
2019-04-30T15:57:19.027Z,0.70
2019-04-30T15:59:48.120Z,0.80
2019-04-30T16:02:36.125Z,0.70
2019-04-30T16:05:12.027Z,0.88
2019-04-30T16:08:00.753Z,0.75
2019-04-30T16:10:51.569Z,0.82
2019-04-30T16:13:22.142Z,0.75
2019-04-30T16:15:50.986Z,0.90
2019-04-30T16:18:20.023Z,0.80
2019-04-30T16:20:49.890Z,0.82
2019-04-30T16:23:19.180Z,0.68
2019-04-30T16:25:48.306Z,0.60
2019-04-30T16:28:17.187Z,0.55
2019-04-30T16:30:46.266Z,0.62
2019-04-30T16:33:15.295Z,0.70
2019-04-30T16:35:44.627Z,0.70
2019-04-30T16:38:13.715Z,0.70
2019-04-30T16:40:42.515Z,0.70
2019-04-30T16:43:11.378Z,0.60
2019-04-30T16:45:40.649Z,0.60
2019-04-30T16:48:12.038Z,0.80
2019-04-30T16:50:43.263Z,0.77
2019-04-30T16:53:14.211Z,0.90
2019-04-30T16:55:43.333Z,0.60
2019-04-30T16:58:12.195Z,0.78
2019-04-30T17:00:42.742Z,0.80
2019-04-30T17:03:19.823Z,0.90
2019-04-30T17:05:54.027Z,0.93
2019-04-30T17:08:36.039Z,0.68
2019-04-30T17:11:30.800Z,0.72
2019-04-30T17:14:03.023Z,0.70
2019-04-30T17:16:32.266Z,0.70
2019-04-30T17:19:01.090Z,0.70
2019-04-30T17:21:30.358Z,0.70
2019-04-30T17:24:00.005Z,0.88
2019-04-30T17:26:28.963Z,0.70
2019-04-30T17:28:59.827Z,0.80
2019-04-30T17:31:36.710Z,0.80
2019-04-30T17:34:05.807Z,0.70
2019-04-30T17:36:34.993Z,0.70
2019-04-30T17:39:07.529Z,0.80
2019-04-30T17:41:36.574Z,0.80
2019-04-30T17:44:05.341Z,0.80
2019-04-30T17:46:34.106Z,0.90
2019-04-30T17:49:03.050Z,0.93
2019-04-30T17:51:31.839Z,1.00
2019-04-30T17:54:14.913Z,0.82
2019-04-30T17:56:45.239Z,1.10
2019-04-30T17:59:14.746Z,1.12
2019-04-30T18:01:49.506Z,1.40
2019-04-30T18:04:18.686Z,1.00
2019-04-30T18:06:50.652Z,1.00
2019-04-30T18:09:20.009Z,1.20
2019-04-30T18:11:49.568Z,0.93
2019-04-30T18:14:18.799Z,1.07
2019-04-30T18:16:48.642Z,1.20
2019-04-30T18:19:25.452Z,1.00
2019-04-30T18:22:02.012Z,1.15
2019-04-30T18:24:36.244Z,1.20
2019-04-30T18:27:16.210Z,1.10
2019-04-30T18:29:44.980Z,1.30
2019-04-30T18:32:14.088Z,1.12
2019-04-30T18:34:42.915Z,1.20
2019-04-30T18:37:11.652Z,1.30
2019-04-30T18:39:40.636Z,1.00
2019-04-30T18:42:11.071Z,1.15
2019-04-30T18:44:40.003Z,1.27
2019-04-30T18:47:09.089Z,1.00
2019-04-30T18:49:39.500Z,1.10
2019-04-30T18:52:09.076Z,1.27
2019-04-30T18:54:39.979Z,1.32
2019-04-30T18:57:08.861Z,1.20
2019-04-30T18:59:38.783Z,1.20
2019-04-30T19:02:10.026Z,1.37
2019-04-30T19:04:40.747Z,1.42
2019-04-30T19:07:26.730Z,1.25
2019-04-30T19:10:07.535Z,1.40
2019-04-30T19:12:59.083Z,1.30
2019-04-30T19:16:18.620Z,1.67
2019-04-30T19:18:38.151Z,1.40
2019-04-30T19:21:13.164Z,1.40
2019-04-30T19:23:43.732Z,1.62
2019-04-30T19:26:12.785Z,1.55
2019-04-30T19:28:41.775Z,1.90
2019-04-30T19:31:11.754Z,1.82
2019-04-30T19:33:41.288Z,1.65
2019-04-30T19:36:11.549Z,1.87
2019-04-30T19:38:42.755Z,2.10
2019-04-30T19:41:11.818Z,1.83
2019-04-30T19:43:42.032Z,1.80
2019-04-30T19:46:11.118Z,2.03
2019-04-30T19:48:42.427Z,2.40
2019-04-30T19:51:13.319Z,2.25
2019-04-30T19:53:43.321Z,2.20
2019-04-30T19:56:12.835Z,2.10
2019-04-30T19:58:54.330Z,2.17
2019-04-30T20:01:16.155Z,2.42
2019-04-30T20:03:45.543Z,2.42
2019-04-30T20:06:19.011Z,2.17
2019-04-30T20:08:47.665Z,2.33
2019-04-30T20:11:16.928Z,2.65
2019-04-30T20:13:45.862Z,2.40
2019-04-30T20:16:14.930Z,2.37
2019-04-30T20:18:43.820Z,2.60
2019-04-30T20:21:27.590Z,2.87
2019-04-30T20:23:47.572Z,2.62
2019-04-30T20:26:18.637Z,2.52
2019-04-30T20:28:48.749Z,2.30
2019-04-30T20:31:19.009Z,2.83
2019-04-30T20:33:48.932Z,2.50
2019-04-30T20:36:19.073Z,2.35
2019-04-30T20:39:25.486Z,2.60
2019-04-30T20:41:54.645Z,2.70
2019-04-30T20:44:23.535Z,2.62
2019-04-30T20:46:52.475Z,2.60
2019-04-30T20:49:21.210Z,2.40
2019-04-30T20:51:55.614Z,2.47
2019-04-30T20:54:20.737Z,2.60
2019-04-30T20:56:51.002Z,3.05
2019-04-30T20:59:20.545Z,2.50
2019-04-30T21:01:49.538Z,2.70
2019-04-30T21:04:20.769Z,3.00
2019-04-30T21:06:49.651Z,2.62
2019-04-30T21:09:18.664Z,2.50
2019-04-30T21:11:48.975Z,2.70
2019-04-30T21:14:19.178Z,2.75
2019-04-30T21:16:48.238Z,2.95
2019-04-30T21:19:17.120Z,3.25
2019-04-30T21:21:46.128Z,2.90
2019-04-30T21:24:15.049Z,2.60
2019-04-30T21:26:44.135Z,3.10
2019-04-30T21:29:15.664Z,3.25
2019-04-30T21:32:00.994Z,2.70
2019-04-30T21:34:46.687Z,3.70
2019-04-30T21:37:15.613Z,4.53
2019-04-30T21:39:44.384Z,4.42
2019-04-30T21:42:13.153Z,5.33
2019-04-30T21:44:44.373Z,4.97
2019-04-30T21:47:13.116Z,5.00
2019-04-30T21:49:42.470Z,4.67
2019-04-30T21:52:11.357Z,5.22
2019-04-30T21:54:40.146Z,4.90
2019-04-30T21:57:10.172Z,4.60
2019-04-30T21:59:39.056Z,4.50
2019-04-30T22:02:08.185Z,5.10
2019-04-30T22:04:36.953Z,5.20
2019-04-30T22:07:05.844Z,4.95
2019-04-30T22:09:34.566Z,4.87
2019-04-30T22:12:03.524Z,4.92
2019-04-30T22:14:32.304Z,5.08
2019-04-30T22:17:01.052Z,5.03
2019-04-30T22:19:29.838Z,5.12
2019-04-30T22:21:59.487Z,5.10
2019-04-30T22:24:30.379Z,5.58
2019-04-30T22:26:58.881Z,5.78
2019-04-30T22:29:38.790Z,5.67
2019-04-30T22:31:59.381Z,5.03
2019-04-30T22:34:28.776Z,5.55
2019-04-30T22:36:58.663Z,5.30
2019-04-30T22:39:46.743Z,5.15
2019-04-30T22:42:36.985Z,4.97
2019-04-30T22:45:13.869Z,5.22
2019-04-30T22:47:43.190Z,4.70
2019-04-30T22:50:12.692Z,4.73
2019-04-30T22:52:41.479Z,4.87
2019-04-30T22:55:10.527Z,5.05
2019-04-30T22:57:39.309Z,4.65
2019-04-30T23:00:11.489Z,4.20
2019-04-30T23:02:55.430Z,4.13
2019-04-30T23:05:24.199Z,3.83
2019-04-30T23:07:52.943Z,3.80
2019-04-30T23:10:21.954Z,4.20
2019-04-30T23:12:50.931Z,4.20
2019-04-30T23:15:21.145Z,3.52
2019-04-30T23:17:50.056Z,3.90
2019-04-30T23:20:18.839Z,3.67
2019-04-30T23:22:47.620Z,3.90
2019-04-30T23:25:16.529Z,4.03
2019-04-30T23:27:45.405Z,4.25
2019-04-30T23:30:14.591Z,3.70
2019-04-30T23:32:43.327Z,3.95
2019-04-30T23:35:12.406Z,4.00
2019-04-30T23:37:41.121Z,4.05
2019-04-30T23:40:27.584Z,3.80
2019-04-30T23:42:56.672Z,3.62
2019-04-30T23:45:25.567Z,3.80
2019-04-30T23:47:54.478Z,4.15
2019-04-30T23:50:23.628Z,3.62
2019-04-30T23:52:52.350Z,3.95
2019-04-30T23:55:21.282Z,4.10
2019-04-30T23:57:50.008Z,4.30
